History for KNYNEWYO238

Midtown, New York, NY — Current Conditions
Daily Summary for August 22, 2017
  Current: High: Low: Average:
Temperature: 76.3°F 78.4°F 76.3°F 77.4°F
Dew Point: 56.6°F 58.6°F 56.4°F 57.2°F
Humidity: 50% 51% 49% 50%
Wind Speed: - 0.0mph - 0.0mph
Wind Gust: - 0.0mph - -
Wind: North - - North
Pressure: 29.87in 30.16in 29.87in -
Precipitation: 0.00in      
Statistics for the rest of the month
    High: Low: Average:
Temperature:   81.0°F 74.5°F 77.0°F
Dew Point:   61.6°F 52.3°F 55.8°F
Humidity:   57.0% 42.0% 47.6%
Wind Speed:   0.0mph from the North - 0.0mph
Wind Gust:   0.0mph from the North - -
Wind:   - - North
Pressure:   30.30in 29.82in -
Precipitation:   0.00in    
KNYNEWYO238 Weather Graph
Tabular Data for August 22, 2017
Time Temp. Dew Point Pressure Wind Gust Humidity Rainfall
00:11 77.2°F 56.9°F 30.16in - 49% -
00:31 77.2°F 56.9°F 30.16in - 49% -
00:41 77.2°F 56.9°F 30.14in - 49% -
01:01 77.0°F 56.7°F 30.15in - 49% -
01:11 77.0°F 56.7°F 30.14in - 49% -
01:31 77.0°F 56.7°F 30.14in - 49% -
01:41 76.8°F 56.6°F 30.14in - 49% -
02:01 76.8°F 56.6°F 30.13in - 49% -
02:11 76.8°F 56.6°F 30.12in - 49% -
02:31 76.8°F 56.6°F 30.12in - 49% -
02:41 76.8°F 56.6°F 30.12in - 49% -
03:01 76.8°F 57.1°F 30.12in - 50% -
03:11 76.8°F 57.1°F 30.11in - 50% -
03:32 76.8°F 57.1°F 30.11in - 50% -
03:42 76.8°F 57.1°F 30.10in - 50% -
04:12 76.8°F 57.1°F 30.10in - 50% -
04:32 76.8°F 57.1°F 30.10in - 50% -
04:42 76.8°F 57.1°F 30.09in - 50% -
05:02 76.8°F 57.1°F 30.08in - 50% -
05:12 76.8°F 57.1°F 30.09in - 50% -
05:32 76.8°F 57.7°F 30.09in - 51% -
05:42 77.0°F 57.8°F 30.08in - 51% -
06:02 76.8°F 57.7°F 30.09in - 51% -
06:12 77.0°F 57.8°F 30.09in - 51% -
06:32 76.8°F 57.7°F 30.09in - 51% -
06:42 77.0°F 57.8°F 30.09in - 51% -
07:02 76.8°F 57.7°F 30.09in - 51% -
07:12 76.8°F 57.7°F 30.09in - 51% -
07:43 77.0°F 57.8°F 30.09in - 51% -
08:13 77.2°F 58.0°F 30.09in - 51% -
08:33 77.4°F 58.2°F 30.08in - 51% -
08:43 77.4°F 58.2°F 30.06in - 51% -
09:03 77.5°F 58.3°F 30.07in - 51% -
09:13 77.5°F 58.3°F 30.07in - 51% -
09:33 77.7°F 58.5°F 30.06in - 51% -
09:43 77.9°F 58.1°F 30.06in - 50% -
10:13 78.1°F 58.3°F 30.06in - 50% -
10:43 78.4°F 58.6°F 30.06in - 50% -
11:13 77.5°F 57.8°F 30.05in - 50% -
11:44 77.4°F 57.1°F 30.04in - 49% -
12:14 77.2°F 56.9°F 30.02in - 49% -
12:44 77.0°F 56.7°F 30.01in - 49% -
13:14 76.8°F 56.6°F 30.00in - 49% -
13:44 76.8°F 56.6°F 29.99in - 49% -
14:14 76.8°F 56.6°F 29.98in - 49% -
14:44 76.8°F 56.6°F 29.95in - 49% -
15:15 76.6°F 56.4°F 29.93in - 49% -
15:45 76.6°F 56.4°F 29.91in - 49% -
16:15 76.6°F 56.4°F 29.90in - 49% -
16:45 76.6°F 56.9°F 29.89in - 50% -
17:15 76.5°F 56.8°F 29.88in - 50% -
17:45 76.3°F 56.6°F 29.87in - 50% -
Comma Delimited File
Powered by Weather Underground, Inc.